createdAt,value
2019-01-26T00:00:31.839Z,71.46
2019-01-26T00:03:01.299Z,71.23
2019-01-26T00:05:33.782Z,70.20
2019-01-26T00:08:03.972Z,70.20
2019-01-26T00:10:33.239Z,70.61
2019-01-26T00:13:05.777Z,70.33
2019-01-26T00:15:37.898Z,70.54
2019-01-26T00:18:08.589Z,70.15
2019-01-26T00:20:38.038Z,71.26
2019-01-26T00:23:07.437Z,71.34
2019-01-26T00:25:40.797Z,71.62
2019-01-26T00:28:11.926Z,73.37
2019-01-26T00:30:41.276Z,75.00
2019-01-26T00:33:16.338Z,76.43
2019-01-26T00:35:46.985Z,77.67
2019-01-26T00:38:16.101Z,78.07
2019-01-26T00:40:47.187Z,78.60
2019-01-26T00:43:16.851Z,78.06
2019-01-26T00:45:46.647Z,78.45
2019-01-26T00:48:16.830Z,78.75
2019-01-26T00:50:48.844Z,78.38
2019-01-26T00:53:19.740Z,78.46
2019-01-26T00:55:53.886Z,78.50
2019-01-26T00:58:24.658Z,77.99
2019-01-26T01:00:54.808Z,77.31
2019-01-26T01:03:27.360Z,77.69
2019-01-26T01:05:56.781Z,76.35
2019-01-26T01:08:25.904Z,76.23
2019-01-26T01:10:57.217Z,77.23
2019-01-26T01:13:28.488Z,76.89
2019-01-26T01:15:58.444Z,76.97
2019-01-26T01:18:27.574Z,76.63
2019-01-26T01:20:58.527Z,76.27
2019-01-26T01:23:29.710Z,76.20
2019-01-26T01:26:00.230Z,76.52
2019-01-26T01:28:29.393Z,76.21
2019-01-26T01:31:00.473Z,75.49
2019-01-26T01:33:29.514Z,75.51
2019-01-26T01:36:00.094Z,75.68
2019-01-26T01:38:31.860Z,72.59
2019-01-26T01:41:05.091Z,73.80
2019-01-26T01:43:42.965Z,76.53
2019-01-26T01:46:14.827Z,76.49
2019-01-26T01:48:43.987Z,76.28
2019-01-26T01:51:13.172Z,76.61
2019-01-26T01:53:46.701Z,76.56
2019-01-26T01:56:19.038Z,75.64
2019-01-26T01:58:48.627Z,76.12
2019-01-26T02:01:23.584Z,77.05
2019-01-26T02:03:52.715Z,75.86
2019-01-26T02:06:23.680Z,75.37
2019-01-26T02:08:54.396Z,74.89
2019-01-26T02:11:24.334Z,75.66
2019-01-26T02:13:53.479Z,76.66
2019-01-26T02:16:22.602Z,76.74
2019-01-26T02:18:51.762Z,77.07
2019-01-26T02:21:20.893Z,75.81
2019-01-26T02:23:50.081Z,74.84
2019-01-26T02:26:19.232Z,74.55
2019-01-26T02:28:50.150Z,75.39
2019-01-26T02:31:24.834Z,75.70
2019-01-26T02:33:54.171Z,75.65
2019-01-26T02:36:24.959Z,75.51
2019-01-26T02:38:54.129Z,73.99
2019-01-26T02:41:24.578Z,74.76
2019-01-26T02:43:55.049Z,75.81
2019-01-26T02:46:25.465Z,76.60
2019-01-26T02:48:54.705Z,75.97
2019-01-26T02:51:25.412Z,75.46
2019-01-26T02:54:16.505Z,73.22
2019-01-26T02:56:45.601Z,70.33
2019-01-26T02:59:17.064Z,70.08
2019-01-26T03:01:49.424Z,68.80
2019-01-26T03:04:25.127Z,67.57
2019-01-26T03:06:55.974Z,66.70
2019-01-26T03:09:26.119Z,68.81
2019-01-26T03:11:56.648Z,69.83
2019-01-26T03:14:32.020Z,68.90
2019-01-26T03:17:06.292Z,69.01
2019-01-26T03:19:38.607Z,70.59
2019-01-26T03:22:08.170Z,71.87
2019-01-26T03:24:37.285Z,72.73
2019-01-26T03:27:07.709Z,73.13
2019-01-26T03:29:43.213Z,71.57
2019-01-26T03:32:12.389Z,71.84
2019-01-26T03:34:41.484Z,72.73
2019-01-26T03:37:10.628Z,73.01
2019-01-26T03:39:39.756Z,72.26
2019-01-26T03:42:08.868Z,72.67
2019-01-26T03:44:42.397Z,72.75
2019-01-26T03:47:13.797Z,71.12
2019-01-26T03:49:44.923Z,72.88
2019-01-26T03:52:14.035Z,72.32
2019-01-26T03:54:45.042Z,73.35
2019-01-26T03:57:14.987Z,73.85
2019-01-26T03:59:44.194Z,72.66
2019-01-26T04:02:13.606Z,72.15
2019-01-26T04:04:43.461Z,72.77
2019-01-26T04:07:12.739Z,72.81
2019-01-26T04:09:42.354Z,72.34
2019-01-26T04:12:12.186Z,71.81
2019-01-26T04:14:48.826Z,73.67
2019-01-26T04:17:25.801Z,74.64
2019-01-26T04:19:52.599Z,74.99
2019-01-26T04:22:21.724Z,74.38
2019-01-26T04:24:52.538Z,74.21
2019-01-26T04:27:21.849Z,73.51
2019-01-26T04:29:51.529Z,73.07
2019-01-26T04:32:20.750Z,71.70
2019-01-26T04:34:50.034Z,71.45
2019-01-26T04:37:19.153Z,71.60
2019-01-26T04:39:48.256Z,71.41
2019-01-26T04:42:19.034Z,70.19
2019-01-26T04:44:48.410Z,70.21
2019-01-26T04:47:17.517Z,71.15
2019-01-26T04:49:47.826Z,70.99
2019-01-26T04:52:19.036Z,69.89
2019-01-26T04:54:50.366Z,71.52
2019-01-26T04:57:19.517Z,70.78
2019-01-26T04:59:48.737Z,69.96
2019-01-26T05:02:22.053Z,71.94
2019-01-26T05:04:51.708Z,70.79
2019-01-26T05:07:21.386Z,72.10
2019-01-26T05:09:55.296Z,69.82
2019-01-26T05:12:26.910Z,69.32
2019-01-26T05:14:58.120Z,71.44
2019-01-26T05:17:28.391Z,71.16
2019-01-26T05:19:57.513Z,69.53
2019-01-26T05:22:29.269Z,69.39
2019-01-26T05:25:00.021Z,70.33
2019-01-26T05:27:29.192Z,70.80
2019-01-26T05:29:59.363Z,71.36
2019-01-26T05:32:29.764Z,71.57
2019-01-26T05:34:59.325Z,72.67
2019-01-26T05:37:29.379Z,73.14
2019-01-26T05:39:58.539Z,72.18
2019-01-26T05:42:28.103Z,69.55
2019-01-26T05:44:57.367Z,70.05
2019-01-26T05:47:26.517Z,69.64
2019-01-26T05:49:59.038Z,68.72
2019-01-26T05:52:29.789Z,69.38
2019-01-26T05:55:00.475Z,69.89
2019-01-26T05:57:30.044Z,71.44
2019-01-26T06:00:00.745Z,73.56
2019-01-26T06:02:30.177Z,70.19
2019-01-26T06:04:59.613Z,71.27
2019-01-26T06:07:32.627Z,72.46
2019-01-26T06:10:03.750Z,72.98
2019-01-26T06:12:33.300Z,71.54
2019-01-26T06:15:02.744Z,73.45
2019-01-26T06:17:32.994Z,75.49
2019-01-26T06:20:07.007Z,75.27
2019-01-26T06:22:42.171Z,74.53
2019-01-26T06:25:12.875Z,74.32
2019-01-26T06:27:46.187Z,75.46
2019-01-26T06:30:25.838Z,76.82
2019-01-26T06:32:55.133Z,77.07
2019-01-26T06:35:33.849Z,75.90
2019-01-26T06:38:02.966Z,75.90
2019-01-26T06:40:32.301Z,75.24
2019-01-26T06:43:02.502Z,75.40
2019-01-26T06:45:31.617Z,76.10
2019-01-26T06:48:02.915Z,76.94
2019-01-26T06:50:35.255Z,77.04
2019-01-26T06:53:04.410Z,77.56
2019-01-26T06:55:39.436Z,78.24
2019-01-26T06:58:08.611Z,78.63
2019-01-26T07:00:37.688Z,78.54
2019-01-26T07:03:08.478Z,79.30
2019-01-26T07:06:14.870Z,79.16
2019-01-26T07:08:45.223Z,79.89
2019-01-26T07:11:14.779Z,79.04
2019-01-26T07:13:50.345Z,77.74
2019-01-26T07:16:28.857Z,77.66
2019-01-26T07:18:57.969Z,78.60
2019-01-26T07:21:27.078Z,79.74
2019-01-26T07:23:57.427Z,79.41
2019-01-26T07:26:29.812Z,80.56
2019-01-26T07:29:02.186Z,79.98
2019-01-26T07:31:32.622Z,80.90
2019-01-26T07:34:06.232Z,81.88
2019-01-26T07:36:35.819Z,81.04
2019-01-26T07:39:13.122Z,81.74
2019-01-26T07:41:42.586Z,82.36
2019-01-26T07:44:11.974Z,81.46
2019-01-26T07:46:44.642Z,83.29
2019-01-26T07:49:15.591Z,82.85
2019-01-26T07:51:47.791Z,81.12
2019-01-26T07:54:20.446Z,81.13
2019-01-26T07:56:52.825Z,82.87
2019-01-26T07:59:21.905Z,81.67
2019-01-26T08:01:51.242Z,80.49
2019-01-26T08:04:21.416Z,81.15
2019-01-26T08:06:51.663Z,81.43
2019-01-26T08:09:26.406Z,81.52
2019-01-26T08:11:57.295Z,81.41
2019-01-26T08:14:26.497Z,80.45
2019-01-26T08:16:55.679Z,80.99
2019-01-26T08:19:29.062Z,81.14
2019-01-26T08:22:00.504Z,81.07
2019-01-26T08:24:29.619Z,80.40
2019-01-26T08:29:45.015Z,80.62
2019-01-26T08:32:18.246Z,81.17
2019-01-26T08:34:47.286Z,81.77
2019-01-26T08:37:16.422Z,82.33
2019-01-26T08:39:48.149Z,82.93
2019-01-26T08:42:20.597Z,82.69
2019-01-26T08:44:57.105Z,82.83
2019-01-26T08:47:26.334Z,82.55
2019-01-26T08:49:55.485Z,82.90
2019-01-26T08:52:24.705Z,82.06
2019-01-26T08:54:56.737Z,82.66
2019-01-26T08:57:27.425Z,81.96
2019-01-26T08:59:56.657Z,82.03
2019-01-26T09:02:50.727Z,80.72
2019-01-26T09:05:22.930Z,80.29
2019-01-26T09:07:55.508Z,79.93
2019-01-26T09:10:24.971Z,80.52
2019-01-26T09:12:55.852Z,80.25
2019-01-26T09:15:25.040Z,80.45
2019-01-26T09:17:54.140Z,81.04
2019-01-26T09:20:30.271Z,81.74
2019-01-26T09:22:55.923Z,81.63
2019-01-26T09:25:25.222Z,80.28
2019-01-26T09:27:57.874Z,79.87
2019-01-26T09:30:31.059Z,81.08
2019-01-26T09:33:02.134Z,81.51
2019-01-26T09:35:38.677Z,81.61
2019-01-26T09:38:10.787Z,81.48
2019-01-26T09:40:44.897Z,82.65
2019-01-26T09:43:25.512Z,81.96
2019-01-26T09:45:54.652Z,82.45
2019-01-26T09:48:23.841Z,82.34
2019-01-26T09:50:52.939Z,82.13
2019-01-26T09:53:23.193Z,82.11
2019-01-26T09:55:52.440Z,82.51
2019-01-26T09:58:26.920Z,83.05
2019-01-26T10:00:56.052Z,82.71
2019-01-26T10:03:25.231Z,83.01
2019-01-26T10:05:55.641Z,83.04
2019-01-26T10:08:26.908Z,81.85
2019-01-26T10:10:57.462Z,80.46
2019-01-26T10:13:26.497Z,80.32
2019-01-26T10:15:56.087Z,79.64
2019-01-26T10:18:28.219Z,79.23
2019-01-26T10:20:57.420Z,78.84
2019-01-26T10:23:26.514Z,79.42
2019-01-26T10:25:55.795Z,80.05
2019-01-26T10:28:24.901Z,79.78
2019-01-26T10:31:04.769Z,79.81
2019-01-26T10:33:34.992Z,80.63
2019-01-26T10:36:23.038Z,80.16
2019-01-26T10:39:00.494Z,80.00
2019-01-26T10:41:48.674Z,78.04
2019-01-26T10:44:31.320Z,79.82
2019-01-26T10:47:01.827Z,79.27
2019-01-26T10:49:36.713Z,78.49
2019-01-26T10:52:08.351Z,77.83
2019-01-26T10:54:37.531Z,76.37
2019-01-26T10:57:08.570Z,76.73
2019-01-26T10:59:37.630Z,77.50
2019-01-26T11:02:11.813Z,77.51
2019-01-26T11:04:42.140Z,77.09
2019-01-26T11:07:16.054Z,76.73
2019-01-26T11:09:47.955Z,76.46
2019-01-26T11:12:19.028Z,77.09
2019-01-26T11:14:54.519Z,78.25
2019-01-26T11:17:25.921Z,79.04
2019-01-26T11:19:56.640Z,78.95
2019-01-26T11:22:25.764Z,77.85
2019-01-26T11:24:58.437Z,77.85
2019-01-26T11:27:28.932Z,76.94
2019-01-26T11:29:58.808Z,76.30
2019-01-26T11:32:28.146Z,76.50
2019-01-26T11:34:57.282Z,78.01
2019-01-26T11:37:26.841Z,77.07
2019-01-26T11:40:08.786Z,77.13
2019-01-26T11:42:46.529Z,77.80
2019-01-26T11:45:24.809Z,77.23
2019-01-26T11:47:54.336Z,75.77
2019-01-26T11:50:35.069Z,75.47
2019-01-26T11:53:04.259Z,74.58
2019-01-26T11:55:48.810Z,75.15
2019-01-26T11:58:18.008Z,75.74
2019-01-26T12:01:04.343Z,76.27
2019-01-26T12:03:49.489Z,76.28
2019-01-26T12:06:24.577Z,75.46
2019-01-26T12:08:56.225Z,76.97
2019-01-26T12:11:27.420Z,77.26
2019-01-26T12:13:56.349Z,77.40
2019-01-26T12:16:27.114Z,77.56
2019-01-26T12:18:56.403Z,76.64
2019-01-26T12:21:25.727Z,75.60
2019-01-26T12:23:54.900Z,74.81
2019-01-26T12:26:26.311Z,75.00
2019-01-26T12:28:58.828Z,77.16
2019-01-26T12:31:30.250Z,78.72
2019-01-26T12:34:01.536Z,78.57
2019-01-26T12:36:30.922Z,78.37
2019-01-26T12:39:00.042Z,78.35
2019-01-26T12:41:30.258Z,78.54
2019-01-26T12:44:03.522Z,77.79
2019-01-26T12:46:32.631Z,78.04
2019-01-26T12:49:01.889Z,77.98
2019-01-26T12:51:36.927Z,78.63
2019-01-26T12:54:10.782Z,78.00
2019-01-26T12:56:40.116Z,78.45
2019-01-26T12:59:12.475Z,78.63
2019-01-26T13:01:41.859Z,79.48
2019-01-26T13:04:12.375Z,79.34
2019-01-26T13:06:45.924Z,79.81
2019-01-26T13:09:16.151Z,79.40
2019-01-26T13:11:46.082Z,78.83
2019-01-26T13:14:16.376Z,79.35
2019-01-26T13:16:48.386Z,79.26
2019-01-26T13:19:17.630Z,79.26
2019-01-26T13:21:55.959Z,79.40
2019-01-26T13:24:25.114Z,79.36
2019-01-26T13:26:54.400Z,78.88
2019-01-26T13:29:25.137Z,79.59
2019-01-26T13:31:54.441Z,78.84
2019-01-26T13:34:23.534Z,77.25
2019-01-26T13:36:54.310Z,76.67
2019-01-26T13:39:24.242Z,76.90
2019-01-26T13:41:55.824Z,77.70
2019-01-26T13:44:26.870Z,77.67
2019-01-26T13:46:56.097Z,76.91
2019-01-26T13:49:30.309Z,77.78
2019-01-26T13:52:02.012Z,78.28
2019-01-26T13:54:30.817Z,78.69
2019-01-26T13:57:01.070Z,78.25
2019-01-26T13:59:31.385Z,78.04
2019-01-26T14:02:00.988Z,78.55
2019-01-26T14:04:34.383Z,78.70
2019-01-26T14:07:06.890Z,79.29
2019-01-26T14:09:42.027Z,80.18
2019-01-26T14:12:11.251Z,80.14
2019-01-26T14:14:43.788Z,80.16
2019-01-26T14:17:12.881Z,80.95
2019-01-26T14:19:51.018Z,80.58
2019-01-26T14:22:15.500Z,80.29
2019-01-26T14:24:44.656Z,79.73
2019-01-26T14:27:15.046Z,79.49
2019-01-26T14:29:47.785Z,80.16
2019-01-26T14:32:22.756Z,79.18
2019-01-26T14:34:51.883Z,79.41
2019-01-26T14:37:21.343Z,80.66
2019-01-26T14:39:53.113Z,79.03
2019-01-26T14:42:25.394Z,80.13
2019-01-26T14:44:54.577Z,80.47
2019-01-26T14:47:30.663Z,80.46
2019-01-26T14:50:06.985Z,80.81
2019-01-26T14:52:38.812Z,80.37
2019-01-26T14:55:29.395Z,80.05
2019-01-26T14:58:00.119Z,78.81
2019-01-26T15:00:47.534Z,79.73
2019-01-26T15:03:16.637Z,80.17
2019-01-26T15:05:45.998Z,79.53
2019-01-26T15:08:15.413Z,80.31
2019-01-26T15:10:49.001Z,80.93
2019-01-26T15:13:24.201Z,80.76
2019-01-26T15:15:56.691Z,81.78
2019-01-26T15:18:25.816Z,82.23
2019-01-26T15:20:57.401Z,82.05
2019-01-26T15:23:26.517Z,82.08
2019-01-26T15:25:58.812Z,84.01
2019-01-26T15:28:31.821Z,83.10
2019-01-26T15:31:01.470Z,83.32
2019-01-26T15:33:32.183Z,83.39
2019-01-26T15:36:01.339Z,82.80
2019-01-26T15:38:30.460Z,82.57
2019-01-26T15:41:00.892Z,80.89
2019-01-26T15:43:30.536Z,82.48
2019-01-26T15:45:59.653Z,82.77
2019-01-26T15:48:30.109Z,82.44
2019-01-26T15:51:00.046Z,82.41
2019-01-26T15:53:39.165Z,82.16
2019-01-26T15:56:03.880Z,82.09
2019-01-26T15:58:34.262Z,82.33
2019-01-26T16:01:06.049Z,82.56
2019-01-26T16:03:36.909Z,82.40
2019-01-26T16:06:11.156Z,83.98
2019-01-26T16:08:41.196Z,83.26
2019-01-26T16:11:11.687Z,82.49
2019-01-26T16:13:40.775Z,82.30
2019-01-26T16:16:11.091Z,82.15
2019-01-26T16:18:41.480Z,82.49
2019-01-26T16:21:10.915Z,82.44
2019-01-26T16:23:42.600Z,82.04
2019-01-26T16:26:15.709Z,82.05
2019-01-26T16:28:44.857Z,81.94
2019-01-26T16:31:13.957Z,82.10
2019-01-26T16:33:43.452Z,81.23
2019-01-26T16:36:15.389Z,81.70
2019-01-26T16:38:46.693Z,82.09
2019-01-26T16:41:21.023Z,81.45
2019-01-26T16:43:50.182Z,81.24
2019-01-26T16:46:20.527Z,81.01
2019-01-26T16:48:52.651Z,81.92
2019-01-26T16:51:26.108Z,82.04
2019-01-26T16:54:03.282Z,81.70
2019-01-26T16:56:33.553Z,82.08
2019-01-26T16:59:08.180Z,82.20
2019-01-26T17:01:37.508Z,81.71
2019-01-26T17:04:08.114Z,80.72
2019-01-26T17:06:37.624Z,80.72
2019-01-26T17:09:13.235Z,81.02
2019-01-26T17:11:44.380Z,80.84
2019-01-26T17:14:13.651Z,80.79
2019-01-26T17:16:42.861Z,80.66
2019-01-26T17:19:13.894Z,79.63
2019-01-26T17:21:43.321Z,80.28
2019-01-26T17:24:12.528Z,81.24
2019-01-26T17:26:44.028Z,81.26
2019-01-26T17:29:13.166Z,81.61
2019-01-26T17:31:43.561Z,81.35
2019-01-26T17:34:14.346Z,81.22
2019-01-26T17:36:45.642Z,80.55
2019-01-26T17:39:19.154Z,80.47
2019-01-26T17:41:51.421Z,80.81
2019-01-26T17:44:20.553Z,81.34
2019-01-26T17:46:50.948Z,80.66
2019-01-26T17:49:21.494Z,80.45
2019-01-26T17:51:54.307Z,80.21
2019-01-26T17:54:25.164Z,80.96
2019-01-26T17:56:58.993Z,81.18
2019-01-26T17:59:28.084Z,81.51
2019-01-26T18:01:57.657Z,80.81
2019-01-26T18:04:26.802Z,81.75
2019-01-26T18:06:56.073Z,82.14
2019-01-26T18:09:26.499Z,81.10
2019-01-26T18:12:00.172Z,81.65
2019-01-26T18:14:29.294Z,81.29
2019-01-26T18:16:58.405Z,81.52
2019-01-26T18:19:28.757Z,81.81
2019-01-26T18:22:01.516Z,81.48
2019-01-26T18:24:30.715Z,81.70
2019-01-26T18:27:01.471Z,81.17
2019-01-26T18:29:30.642Z,81.76
2019-01-26T18:31:59.752Z,80.95
2019-01-26T18:34:28.893Z,81.99
2019-01-26T18:36:58.178Z,81.60
2019-01-26T18:39:28.947Z,80.50
2019-01-26T18:41:58.107Z,81.00
2019-01-26T18:44:28.875Z,82.33
2019-01-26T18:46:58.069Z,81.92
2019-01-26T18:49:27.887Z,81.76
2019-01-26T18:52:00.091Z,81.82
2019-01-26T18:54:29.209Z,81.07
2019-01-26T18:56:58.488Z,82.12
2019-01-26T18:59:27.592Z,81.60
2019-01-26T19:02:02.940Z,81.84
2019-01-26T19:04:43.079Z,81.51
2019-01-26T19:07:15.076Z,82.36
2019-01-26T19:09:46.332Z,82.59
2019-01-26T19:12:21.961Z,81.81
2019-01-26T19:14:55.265Z,81.14
2019-01-26T19:17:29.563Z,80.83
2019-01-26T19:19:58.871Z,81.81
2019-01-26T19:22:27.997Z,79.83
2019-01-26T19:24:59.011Z,80.53
2019-01-26T19:27:28.108Z,80.86
2019-01-26T19:29:58.684Z,80.70
2019-01-26T19:32:34.720Z,78.17
2019-01-26T19:35:06.847Z,81.06
2019-01-26T19:37:38.391Z,80.20
2019-01-26T19:40:11.374Z,78.51
2019-01-26T19:42:40.517Z,79.18
2019-01-26T19:45:13.981Z,80.07
2019-01-26T19:47:46.991Z,81.18
2019-01-26T19:50:20.646Z,80.84
2019-01-26T19:52:56.672Z,80.80
2019-01-26T19:55:26.271Z,80.91
2019-01-26T19:57:57.875Z,80.55
2019-01-26T20:00:29.928Z,81.16
2019-01-26T20:02:59.335Z,80.52
2019-01-26T20:05:30.345Z,81.07
2019-01-26T20:08:01.026Z,81.33
2019-01-26T20:10:30.164Z,81.20
2019-01-26T20:13:00.619Z,81.49
2019-01-26T20:15:29.704Z,81.20
2019-01-26T20:18:03.290Z,80.52
2019-01-26T20:20:36.744Z,80.49
2019-01-26T20:23:07.350Z,80.23
2019-01-26T20:25:36.537Z,80.17
2019-01-26T20:28:08.037Z,78.13
2019-01-26T20:30:38.577Z,78.05
2019-01-26T20:33:07.938Z,77.47
2019-01-26T20:35:44.334Z,78.64
2019-01-26T20:38:15.810Z,78.16
2019-01-26T20:40:45.028Z,78.77
2019-01-26T20:43:14.142Z,80.15
2019-01-26T20:45:47.004Z,79.81
2019-01-26T20:48:16.339Z,80.80
2019-01-26T20:50:48.051Z,80.06
2019-01-26T20:53:17.178Z,80.32
2019-01-26T20:55:47.530Z,80.54
2019-01-26T20:58:21.787Z,79.69
2019-01-26T21:00:53.372Z,79.41
2019-01-26T21:03:22.486Z,79.43
2019-01-26T21:05:53.067Z,77.86
2019-01-26T21:08:26.686Z,78.16
2019-01-26T21:10:58.361Z,79.10
2019-01-26T21:13:30.581Z,77.82
2019-01-26T21:15:59.736Z,79.79
2019-01-26T21:18:28.971Z,79.97
2019-01-26T21:20:59.156Z,80.02
2019-01-26T21:23:29.369Z,79.51
2019-01-26T21:25:58.650Z,79.73
2019-01-26T21:28:31.536Z,80.00
2019-01-26T21:31:04.387Z,79.90
2019-01-26T21:33:35.417Z,79.72
2019-01-26T21:36:05.636Z,79.92
2019-01-26T21:38:34.758Z,79.76
2019-01-26T21:41:05.678Z,80.66
2019-01-26T21:43:36.310Z,79.82
2019-01-26T21:46:06.198Z,80.58
2019-01-26T21:48:45.238Z,79.75
2019-01-26T21:51:23.516Z,80.30
2019-01-26T21:53:56.792Z,79.90
2019-01-26T21:56:23.856Z,79.64
2019-01-26T21:58:54.983Z,80.60
2019-01-26T22:01:25.410Z,80.02
2019-01-26T22:03:54.629Z,81.18
2019-01-26T22:06:23.919Z,80.39
2019-01-26T22:08:53.063Z,80.62
2019-01-26T22:11:23.436Z,80.27
2019-01-26T22:13:52.583Z,79.53
2019-01-26T22:16:24.262Z,79.16
2019-01-26T22:18:54.850Z,78.99
2019-01-26T22:21:24.319Z,79.15
2019-01-26T22:23:53.538Z,79.88
2019-01-26T22:26:22.883Z,80.21
2019-01-26T22:28:56.023Z,79.82
2019-01-26T22:31:27.583Z,79.31
2019-01-26T22:33:56.682Z,78.84
2019-01-26T22:36:26.914Z,78.16
2019-01-26T22:38:56.103Z,78.68
2019-01-26T22:41:26.768Z,76.84
2019-01-26T22:43:56.611Z,75.45
2019-01-26T22:46:37.822Z,74.57
2019-01-26T22:49:10.044Z,75.56
2019-01-26T22:51:45.009Z,76.28
2019-01-26T22:54:15.478Z,77.26
2019-01-26T22:56:44.645Z,76.82
2019-01-26T22:59:16.168Z,76.35
2019-01-26T23:01:52.039Z,77.31
2019-01-26T23:04:58.448Z,77.02
2019-01-26T23:07:46.994Z,78.20
2019-01-26T23:10:42.907Z,78.15
2019-01-26T23:13:42.941Z,77.65
2019-01-26T23:16:57.057Z,76.70
2019-01-26T23:19:37.262Z,77.90
2019-01-26T23:22:52.280Z,77.55
2019-01-26T23:26:14.230Z,78.16
2019-01-26T23:29:04.562Z,77.80
2019-01-26T23:31:33.943Z,76.74
2019-01-26T23:34:04.253Z,76.40
2019-01-26T23:36:35.153Z,76.56
2019-01-26T23:39:08.019Z,77.60
2019-01-26T23:41:38.290Z,76.87
2019-01-26T23:44:08.236Z,75.04
2019-01-26T23:46:37.577Z,75.67
2019-01-26T23:49:08.347Z,75.08
2019-01-26T23:51:37.954Z,74.71
2019-01-26T23:54:11.401Z,75.95
2019-01-26T23:56:40.890Z,76.10
2019-01-26T23:59:10.186Z,75.99
